createdAt,value
2023-02-22T00:00:59.844Z,34.75
2023-02-22T00:03:27.247Z,34.63
2023-02-22T00:06:00.512Z,35.28
2023-02-22T00:08:31.471Z,34.50
2023-02-22T00:11:02.198Z,34.38
2023-02-22T00:13:29.357Z,34.45
2023-02-22T00:15:57.139Z,32.78
2023-02-22T00:18:28.106Z,34.35
2023-02-22T00:21:01.667Z,32.90
2023-02-22T00:23:32.988Z,32.63
2023-02-22T00:26:04.907Z,32.67
2023-02-22T00:28:33.721Z,32.15
2023-02-22T00:31:06.198Z,33.70
2023-02-22T00:33:36.646Z,32.38
2023-02-22T00:36:05.946Z,31.87
2023-02-22T00:38:35.304Z,32.05
2023-02-22T00:41:04.615Z,30.67
2023-02-22T00:43:33.538Z,31.83
2023-02-22T00:46:00.262Z,30.17
2023-02-22T00:48:31.842Z,30.17
2023-02-22T00:51:03.240Z,29.40
2023-02-22T00:53:29.868Z,29.17
2023-02-22T00:56:01.631Z,30.45
2023-02-22T00:58:33.830Z,30.25
2023-02-22T01:01:02.582Z,29.25
2023-02-22T01:03:29.297Z,30.70
2023-02-22T01:05:58.234Z,28.98
2023-02-22T01:08:25.216Z,28.98
2023-02-22T01:10:54.168Z,29.00
2023-02-22T01:13:23.106Z,28.58
2023-02-22T01:15:50.010Z,28.45
2023-02-22T01:18:17.402Z,27.88
2023-02-22T01:20:48.132Z,28.20
2023-02-22T01:23:17.531Z,28.58
2023-02-22T01:25:44.331Z,27.02
2023-02-22T01:28:10.993Z,27.30
2023-02-22T01:30:37.835Z,26.65
2023-02-22T01:33:07.348Z,26.42
2023-02-22T01:35:38.580Z,26.40
2023-02-22T01:40:36.021Z,26.23
2023-02-22T01:43:05.210Z,27.27
2023-02-22T01:45:34.663Z,25.40
2023-02-22T01:48:30.886Z,25.33
2023-02-22T01:51:21.764Z,24.75
2023-02-22T01:53:53.545Z,23.90
2023-02-22T01:56:22.681Z,24.08
2023-02-22T01:58:55.018Z,23.98
2023-02-22T02:01:24.416Z,23.60
2023-02-22T02:03:58.168Z,22.98
2023-02-22T02:06:27.084Z,24.20
2023-02-22T02:08:56.099Z,23.50
2023-02-22T02:11:25.649Z,23.35
2023-02-22T02:13:55.346Z,23.55
2023-02-22T02:16:23.913Z,23.67
2023-02-22T02:18:50.575Z,22.85
2023-02-22T02:21:49.951Z,23.92
2023-02-22T02:24:40.394Z,21.85
2023-02-22T02:27:23.158Z,22.60
2023-02-22T02:30:18.304Z,22.33
2023-02-22T02:32:50.577Z,22.05
2023-02-22T02:35:26.974Z,22.35
2023-02-22T02:38:27.380Z,20.52
2023-02-22T02:41:23.154Z,21.00
2023-02-22T02:44:09.080Z,21.45
2023-02-22T02:46:59.396Z,20.77
2023-02-22T02:49:46.686Z,21.15
2023-02-22T02:52:16.218Z,20.80
2023-02-22T02:54:45.817Z,19.67
2023-02-22T02:57:15.747Z,21.15
2023-02-22T02:59:44.587Z,20.35
2023-02-22T03:02:27.233Z,20.38
2023-02-22T03:05:26.190Z,21.23
2023-02-22T03:07:52.790Z,19.98
2023-02-22T03:10:31.697Z,19.75
2023-02-22T03:13:29.937Z,19.75
2023-02-22T03:16:11.874Z,19.27
2023-02-22T03:19:08.371Z,18.63
2023-02-22T03:21:41.825Z,19.00
2023-02-22T03:24:19.038Z,18.70
2023-02-22T03:26:50.294Z,18.75
2023-02-22T03:31:54.999Z,18.38
2023-02-22T03:34:29.834Z,18.73
2023-02-22T03:37:06.646Z,16.25
2023-02-22T03:39:35.478Z,17.92
2023-02-22T03:42:08.910Z,18.05
2023-02-22T03:44:38.018Z,17.55
2023-02-22T03:47:09.827Z,18.58
2023-02-22T03:49:42.731Z,17.90
2023-02-22T03:52:17.414Z,17.40
2023-02-22T03:54:46.752Z,17.20
2023-02-22T03:57:20.475Z,17.38
2023-02-22T03:59:47.098Z,16.08
2023-02-22T04:02:13.937Z,16.33
2023-02-22T04:04:40.646Z,16.17
2023-02-22T04:07:09.651Z,15.82
2023-02-22T04:09:38.650Z,16.08
2023-02-22T04:12:05.575Z,16.88
2023-02-22T04:14:32.232Z,15.95
2023-02-22T04:16:58.909Z,15.20
2023-02-22T04:19:27.887Z,15.95
2023-02-22T04:21:56.864Z,16.08
2023-02-22T04:24:23.574Z,14.98
2023-02-22T04:26:50.341Z,14.02
2023-02-22T04:29:16.981Z,14.20
2023-02-22T04:31:45.946Z,15.13
2023-02-22T04:34:12.740Z,15.02
2023-02-22T04:36:42.316Z,14.10
2023-02-22T04:39:11.401Z,13.82
2023-02-22T04:41:40.347Z,15.25
2023-02-22T04:44:09.163Z,14.85
2023-02-22T04:46:38.083Z,15.15
2023-02-22T04:49:06.964Z,14.70
2023-02-22T04:51:35.716Z,15.23
2023-02-22T04:54:02.464Z,14.15
2023-02-22T04:56:31.264Z,14.50
2023-02-22T04:58:58.026Z,13.63
2023-02-22T05:01:27.046Z,13.30
2023-02-22T05:03:54.556Z,14.23
2023-02-22T05:06:23.349Z,13.82
2023-02-22T05:08:50.110Z,12.90
2023-02-22T05:11:22.062Z,13.05
2023-02-22T05:13:50.889Z,13.38
2023-02-22T05:16:20.120Z,12.43
2023-02-22T05:18:49.030Z,12.73
2023-02-22T05:21:18.134Z,13.02
2023-02-22T05:23:47.255Z,12.82
2023-02-22T05:26:16.872Z,12.20
2023-02-22T05:28:45.830Z,12.48
2023-02-22T05:31:15.541Z,12.40
2023-02-22T05:33:42.387Z,11.60
2023-02-22T05:36:11.412Z,12.25
2023-02-22T05:38:43.487Z,12.15
2023-02-22T05:41:11.394Z,12.23
2023-02-22T05:43:38.920Z,12.88
2023-02-22T05:46:08.724Z,11.25
2023-02-22T05:48:35.445Z,12.25
2023-02-22T05:51:05.304Z,12.05
2023-02-22T05:53:34.224Z,11.05
2023-02-22T05:56:00.891Z,11.80
2023-02-22T05:58:27.566Z,12.05
2023-02-22T06:01:00.148Z,11.13
2023-02-22T06:03:33.106Z,12.15
2023-02-22T06:05:59.766Z,11.40
2023-02-22T06:08:29.586Z,11.02
2023-02-22T06:11:01.125Z,11.57
2023-02-22T06:13:30.142Z,11.18
2023-02-22T06:15:56.891Z,11.30
2023-02-22T06:18:26.683Z,11.15
2023-02-22T06:20:55.893Z,10.88
2023-02-22T06:23:22.683Z,11.70
2023-02-22T06:25:55.023Z,11.65
2023-02-22T06:28:23.806Z,11.20
2023-02-22T06:30:50.534Z,11.05
2023-02-22T06:33:17.200Z,10.52
2023-02-22T06:35:48.553Z,10.50
2023-02-22T06:38:25.106Z,10.52
2023-02-22T06:40:55.384Z,10.52
2023-02-22T06:43:24.978Z,10.88
2023-02-22T06:45:52.536Z,10.13
2023-02-22T06:48:21.472Z,10.32
2023-02-22T06:50:48.074Z,10.38
2023-02-22T06:53:16.994Z,10.45
2023-02-22T06:55:43.950Z,10.45
2023-02-22T06:58:10.627Z,10.13
2023-02-22T07:00:40.278Z,10.10
2023-02-22T07:03:09.203Z,10.25
2023-02-22T07:05:38.313Z,9.73
2023-02-22T07:08:08.787Z,9.70
2023-02-22T07:10:38.976Z,9.47
2023-02-22T07:13:06.568Z,9.15
2023-02-22T07:15:36.028Z,9.57
2023-02-22T07:18:07.442Z,9.95
2023-02-22T07:20:34.110Z,9.50
2023-02-22T07:23:05.501Z,9.85
2023-02-22T07:25:34.514Z,9.48
2023-02-22T07:28:01.200Z,9.00
2023-02-22T07:30:34.397Z,9.95
2023-02-22T07:33:02.710Z,9.13
2023-02-22T07:35:30.160Z,9.43
2023-02-22T07:37:57.033Z,9.35
2023-02-22T07:40:24.385Z,9.15
2023-02-22T07:43:01.443Z,10.15
2023-02-22T07:45:34.426Z,10.75
2023-02-22T07:48:04.758Z,9.70
2023-02-22T07:50:32.587Z,10.52
2023-02-22T07:53:05.386Z,10.60
2023-02-22T07:55:32.659Z,9.23
2023-02-22T07:58:03.166Z,8.88
2023-02-22T08:00:37.629Z,9.40
2023-02-22T08:03:05.865Z,9.25
2023-02-22T08:05:33.341Z,9.02
2023-02-22T08:08:00.000Z,8.85
2023-02-22T08:10:26.932Z,9.77
2023-02-22T08:12:56.372Z,9.50
2023-02-22T08:15:36.395Z,10.70
2023-02-22T08:18:06.350Z,9.43
2023-02-22T08:20:35.331Z,10.23
2023-02-22T08:23:02.032Z,12.52
2023-02-22T08:25:31.565Z,11.85
2023-02-22T08:28:02.326Z,11.73
2023-02-22T08:30:30.195Z,12.82
2023-02-22T08:32:59.198Z,12.90
2023-02-22T08:35:27.584Z,13.20
2023-02-22T08:37:58.641Z,13.90
2023-02-22T08:40:31.051Z,14.02
2023-02-22T08:42:58.003Z,14.00
2023-02-22T08:45:29.437Z,13.48
2023-02-22T08:47:58.579Z,13.98
2023-02-22T08:50:29.986Z,13.95
2023-02-22T08:52:59.790Z,14.88
2023-02-22T08:55:28.263Z,15.00
2023-02-22T08:57:57.049Z,13.70
2023-02-22T09:00:26.481Z,14.23
2023-02-22T09:02:55.362Z,13.80
2023-02-22T09:05:22.075Z,13.38
2023-02-22T09:07:48.847Z,13.60
2023-02-22T09:10:20.591Z,13.70
2023-02-22T09:12:47.307Z,13.70
2023-02-22T09:15:15.045Z,13.55
2023-02-22T09:17:43.891Z,14.07
2023-02-22T09:20:12.443Z,13.13
2023-02-22T09:22:39.404Z,11.35
2023-02-22T09:25:16.708Z,11.95
2023-02-22T09:27:48.007Z,12.05
2023-02-22T09:30:23.880Z,12.52
2023-02-22T09:32:57.641Z,11.85
2023-02-22T09:35:29.724Z,12.10
2023-02-22T09:37:59.483Z,11.95
2023-02-22T09:40:30.263Z,11.70
2023-02-22T09:43:07.744Z,12.20
2023-02-22T09:45:40.746Z,10.93
2023-02-22T09:48:21.158Z,11.32
2023-02-22T09:50:51.176Z,11.13
2023-02-22T09:53:49.863Z,11.02
2023-02-22T09:56:18.716Z,10.63
2023-02-22T09:58:49.745Z,11.57
2023-02-22T10:01:32.984Z,10.90
2023-02-22T10:04:01.857Z,11.60
2023-02-22T10:06:30.934Z,11.38
2023-02-22T10:08:59.348Z,11.20
2023-02-22T10:11:41.228Z,10.68
2023-02-22T10:14:33.314Z,10.82
2023-02-22T10:17:42.058Z,10.18
2023-02-22T10:20:13.452Z,10.23
2023-02-22T10:22:49.117Z,10.25
2023-02-22T10:25:19.305Z,11.88
2023-02-22T10:27:57.194Z,10.63
2023-02-22T10:30:33.971Z,10.43
2023-02-22T10:33:22.452Z,10.80
2023-02-22T10:35:49.156Z,10.68
2023-02-22T10:38:40.117Z,10.55
2023-02-22T10:41:09.683Z,11.27
2023-02-22T10:43:44.000Z,10.05
2023-02-22T10:46:17.269Z,10.27
2023-02-22T10:48:47.740Z,9.48
2023-02-22T10:51:14.366Z,9.57
2023-02-22T10:53:44.702Z,10.63
2023-02-22T10:56:16.862Z,10.83
2023-02-22T10:58:53.202Z,11.45
2023-02-22T11:01:22.942Z,9.70
2023-02-22T11:04:10.998Z,9.55
2023-02-22T11:06:37.936Z,8.38
2023-02-22T11:09:13.325Z,9.10
2023-02-22T11:11:45.397Z,8.90
2023-02-22T11:14:12.589Z,8.32
2023-02-22T11:16:52.729Z,10.55
2023-02-22T11:19:20.761Z,8.75
2023-02-22T11:21:48.692Z,8.93
2023-02-22T11:26:49.180Z,8.48
2023-02-22T11:29:38.803Z,8.13
2023-02-22T11:32:21.191Z,8.80
2023-02-22T11:34:52.833Z,8.95
2023-02-22T11:37:22.460Z,8.70
2023-02-22T11:39:52.426Z,9.30
2023-02-22T11:42:26.390Z,9.18
2023-02-22T11:45:21.213Z,7.65
2023-02-22T11:47:55.243Z,7.22
2023-02-22T11:50:29.523Z,7.90
2023-02-22T11:53:14.444Z,7.90
2023-02-22T11:55:53.246Z,7.13
2023-02-22T11:58:45.761Z,7.07
2023-02-22T12:01:32.803Z,7.25
2023-02-22T12:04:22.614Z,6.90
2023-02-22T12:07:10.586Z,7.32
2023-02-22T12:09:42.190Z,7.10
2023-02-22T12:12:43.018Z,8.30
2023-02-22T12:15:38.991Z,8.03
2023-02-22T12:18:14.571Z,8.65
2023-02-22T12:20:49.529Z,8.95
2023-02-22T12:23:44.926Z,8.63
2023-02-22T12:26:20.214Z,8.30
2023-02-22T12:28:59.463Z,9.00
2023-02-22T12:31:30.485Z,8.50
2023-02-22T12:34:27.347Z,8.80
2023-02-22T12:37:01.644Z,9.05
2023-02-22T12:39:40.960Z,8.90
2023-02-22T12:42:17.563Z,8.85
2023-02-22T12:44:46.535Z,8.50
2023-02-22T12:47:18.488Z,8.32
2023-02-22T12:49:50.946Z,8.50
2023-02-22T12:52:29.743Z,8.45
2023-02-22T12:55:25.518Z,8.52
2023-02-22T12:58:04.592Z,9.40
2023-02-22T13:00:51.374Z,8.32
2023-02-22T13:03:38.648Z,9.30
2023-02-22T13:06:21.873Z,8.68
2023-02-22T13:09:18.710Z,8.80
2023-02-22T13:12:03.517Z,9.95
2023-02-22T13:15:12.989Z,8.95
2023-02-22T13:17:51.387Z,9.52
2023-02-22T13:20:47.021Z,9.15
2023-02-22T13:23:22.672Z,9.05
2023-02-22T13:26:00.607Z,9.50
2023-02-22T13:28:45.468Z,9.00
2023-02-22T13:31:24.178Z,9.82
2023-02-22T13:34:09.762Z,9.52
2023-02-22T13:36:38.754Z,8.90
2023-02-22T13:39:54.721Z,9.02
2023-02-22T13:42:53.694Z,9.05
2023-02-22T13:45:51.398Z,9.35
2023-02-22T13:48:56.453Z,8.48
2023-02-22T13:52:13.550Z,9.05
2023-02-22T13:54:40.153Z,9.18
2023-02-22T21:59:00.281Z,15.55
2023-02-22T22:01:32.627Z,14.00
2023-02-22T22:04:01.513Z,12.30
2023-02-22T22:06:29.866Z,11.93
2023-02-22T22:09:00.143Z,12.52
2023-02-22T22:11:30.734Z,11.77
2023-02-22T22:13:59.596Z,12.10
2023-02-22T22:16:29.836Z,12.32
2023-02-22T22:18:56.806Z,12.70
2023-02-22T22:21:28.172Z,11.30
2023-02-22T22:23:57.313Z,12.02
2023-02-22T22:26:24.790Z,11.43
2023-02-22T22:28:55.835Z,11.38
2023-02-22T22:31:25.862Z,11.20
2023-02-22T22:33:55.123Z,12.35
2023-02-22T22:36:24.182Z,10.93
2023-02-22T22:38:53.518Z,11.15
2023-02-22T22:41:23.636Z,11.30
2023-02-22T22:43:52.489Z,11.00
2023-02-22T22:46:19.157Z,11.52
2023-02-22T22:48:47.408Z,11.15
2023-02-22T22:51:19.281Z,10.43
2023-02-22T22:53:46.987Z,11.38
2023-02-22T22:56:25.972Z,11.02
2023-02-22T22:58:59.891Z,11.30
2023-02-22T23:01:33.957Z,10.73
2023-02-22T23:04:09.983Z,10.48
2023-02-22T23:06:43.082Z,10.50
2023-02-22T23:09:13.377Z,10.40
2023-02-22T23:11:45.186Z,11.18
2023-02-22T23:14:15.557Z,10.63
2023-02-22T23:16:45.490Z,10.45
2023-02-22T23:19:15.802Z,9.50
2023-02-22T23:21:43.946Z,10.83
2023-02-22T23:24:15.126Z,10.27
2023-02-22T23:29:08.846Z,11.00
2023-02-22T23:31:39.823Z,9.73
2023-02-22T23:34:11.261Z,9.85
2023-02-22T23:36:44.490Z,10.77
2023-02-22T23:39:16.455Z,10.40
2023-02-22T23:41:45.269Z,10.48
2023-02-22T23:44:17.446Z,10.35
2023-02-22T23:46:48.201Z,11.00
2023-02-22T23:49:20.074Z,9.98
2023-02-22T23:51:46.969Z,10.30
2023-02-22T23:54:15.385Z,10.25
2023-02-22T23:56:47.323Z,9.57
2023-02-22T23:59:17.165Z,9.65
